sensor_id;sensor_type;location;lat;lon;timestamp;P1;durP1;ratioP1;P2;durP2;ratioP2
49041;SDS011;34859;51.608;11.462;2022-09-27T00:01:00;0.80;;;0.80;;
49041;SDS011;34859;51.608;11.462;2022-09-27T00:03:46;1.40;;;0.88;;
49041;SDS011;34859;51.608;11.462;2022-09-27T00:06:30;1.37;;;0.80;;
49041;SDS011;34859;51.608;11.462;2022-09-27T00:09:15;3.60;;;0.98;;
49041;SDS011;34859;51.608;11.462;2022-09-27T00:11:59;2.72;;;1.00;;
49041;SDS011;34859;51.608;11.462;2022-09-27T00:14:44;0.77;;;0.60;;
49041;SDS011;34859;51.608;11.462;2022-09-27T00:17:28;1.58;;;0.80;;
49041;SDS011;34859;51.608;11.462;2022-09-27T00:20:12;0.73;;;0.73;;
49041;SDS011;34859;51.608;11.462;2022-09-27T00:22:56;2.22;;;1.08;;
49041;SDS011;34859;51.608;11.462;2022-09-27T00:25:40;1.95;;;0.93;;
49041;SDS011;34859;51.608;11.462;2022-09-27T00:28:24;1.13;;;1.02;;
49041;SDS011;34859;51.608;11.462;2022-09-27T00:31:42;0.68;;;0.68;;
49041;SDS011;34859;51.608;11.462;2022-09-27T00:34:21;2.80;;;0.88;;
49041;SDS011;34859;51.608;11.462;2022-09-27T00:37:07;0.73;;;0.65;;
49041;SDS011;34859;51.608;11.462;2022-09-27T00:42:36;0.80;;;0.75;;
49041;SDS011;34859;51.608;11.462;2022-09-27T00:45:20;0.67;;;0.60;;
49041;SDS011;34859;51.608;11.462;2022-09-27T00:48:04;0.85;;;0.85;;
49041;SDS011;34859;51.608;11.462;2022-09-27T00:50:49;0.98;;;0.60;;
49041;SDS011;34859;51.608;11.462;2022-09-27T00:53:42;1.00;;;0.57;;
49041;SDS011;34859;51.608;11.462;2022-09-27T00:56:30;0.90;;;0.73;;
49041;SDS011;34859;51.608;11.462;2022-09-27T00:59:18;1.98;;;1.25;;
49041;SDS011;34859;51.608;11.462;2022-09-27T01:02:06;1.30;;;0.60;;
49041;SDS011;34859;51.608;11.462;2022-09-27T01:04:51;0.73;;;0.70;;
49041;SDS011;34859;51.608;11.462;2022-09-27T01:07:35;0.60;;;0.60;;
49041;SDS011;34859;51.608;11.462;2022-09-27T01:10:20;1.70;;;0.63;;
49041;SDS011;34859;51.608;11.462;2022-09-27T01:22:02;1.15;;;0.70;;
49041;SDS011;34859;51.608;11.462;2022-09-27T01:34:12;1.10;;;1.02;;
49041;SDS011;34859;51.608;11.462;2022-09-27T01:40:26;0.50;;;0.40;;
49041;SDS011;34859;51.608;11.462;2022-09-27T01:43:29;0.68;;;0.55;;
49041;SDS011;34859;51.608;11.462;2022-09-27T01:46:22;9.13;;;1.02;;
49041;SDS011;34859;51.608;11.462;2022-09-27T01:49:14;0.60;;;0.50;;
49041;SDS011;34859;51.608;11.462;2022-09-27T01:52:01;0.63;;;0.60;;
49041;SDS011;34859;51.608;11.462;2022-09-27T01:54:51;0.98;;;0.60;;
49041;SDS011;34859;51.608;11.462;2022-09-27T01:57:39;0.32;;;0.32;;
49041;SDS011;34859;51.608;11.462;2022-09-27T02:00:23;0.50;;;0.50;;
49041;SDS011;34859;51.608;11.462;2022-09-27T02:03:10;0.30;;;0.30;;
49041;SDS011;34859;51.608;11.462;2022-09-27T02:06:00;0.40;;;0.40;;
49041;SDS011;34859;51.608;11.462;2022-09-27T02:08:51;0.88;;;0.40;;
49041;SDS011;34859;51.608;11.462;2022-09-27T02:17:30;0.40;;;0.40;;
49041;SDS011;34859;51.608;11.462;2022-09-27T02:20:36;1.88;;;0.30;;
49041;SDS011;34859;51.608;11.462;2022-09-27T02:23:43;0.40;;;0.40;;
49041;SDS011;34859;51.608;11.462;2022-09-27T02:26:42;0.70;;;0.35;;
49041;SDS011;34859;51.608;11.462;2022-09-27T02:29:40;0.40;;;0.40;;
49041;SDS011;34859;51.608;11.462;2022-09-27T02:32:30;0.47;;;0.40;;
49041;SDS011;34859;51.608;11.462;2022-09-27T02:35:18;0.63;;;0.63;;
49041;SDS011;34859;51.608;11.462;2022-09-27T02:38:09;0.53;;;0.30;;
49041;SDS011;34859;51.608;11.462;2022-09-27T02:40:54;0.57;;;0.40;;
49041;SDS011;34859;51.608;11.462;2022-09-27T02:43:38;0.50;;;0.30;;
49041;SDS011;34859;51.608;11.462;2022-09-27T02:49:33;0.40;;;0.40;;
49041;SDS011;34859;51.608;11.462;2022-09-27T02:59:27;1.45;;;0.50;;
49041;SDS011;34859;51.608;11.462;2022-09-27T03:02:31;1.83;;;0.50;;
49041;SDS011;34859;51.608;11.462;2022-09-27T03:05:31;0.60;;;0.60;;
49041;SDS011;34859;51.608;11.462;2022-09-27T03:08:20;1.50;;;0.75;;
49041;SDS011;34859;51.608;11.462;2022-09-27T03:11:04;3.63;;;0.60;;
49041;SDS011;34859;51.608;11.462;2022-09-27T03:13:48;0.60;;;0.60;;
49041;SDS011;34859;51.608;11.462;2022-09-27T03:16:32;1.45;;;0.73;;
49041;SDS011;34859;51.608;11.462;2022-09-27T03:19:16;0.85;;;0.85;;
49041;SDS011;34859;51.608;11.462;2022-09-27T03:22:00;0.77;;;0.77;;
49041;SDS011;34859;51.608;11.462;2022-09-27T03:24:44;2.72;;;0.63;;
49041;SDS011;34859;51.608;11.462;2022-09-27T03:27:28;1.65;;;0.60;;
49041;SDS011;34859;51.608;11.462;2022-09-27T03:30:12;1.17;;;0.82;;
49041;SDS011;34859;51.608;11.462;2022-09-27T03:32:57;1.45;;;0.47;;
49041;SDS011;34859;51.608;11.462;2022-09-27T03:35:41;0.70;;;0.70;;
49041;SDS011;34859;51.608;11.462;2022-09-27T03:38:26;0.77;;;0.77;;
49041;SDS011;34859;51.608;11.462;2022-09-27T03:41:10;1.50;;;0.40;;
49041;SDS011;34859;51.608;11.462;2022-09-27T03:43:54;1.23;;;0.70;;
49041;SDS011;34859;51.608;11.462;2022-09-27T03:46:42;0.85;;;0.85;;
49041;SDS011;34859;51.608;11.462;2022-09-27T03:49:26;1.30;;;0.70;;
49041;SDS011;34859;51.608;11.462;2022-09-27T03:52:11;0.63;;;0.63;;
49041;SDS011;34859;51.608;11.462;2022-09-27T03:54:55;0.55;;;0.55;;
49041;SDS011;34859;51.608;11.462;2022-09-27T03:57:42;0.63;;;0.43;;
49041;SDS011;34859;51.608;11.462;2022-09-27T04:00:28;1.75;;;0.70;;
49041;SDS011;34859;51.608;11.462;2022-09-27T04:03:14;0.77;;;0.70;;
49041;SDS011;34859;51.608;11.462;2022-09-27T04:06:00;0.80;;;0.60;;
49041;SDS011;34859;51.608;11.462;2022-09-27T04:11:30;0.90;;;0.47;;
49041;SDS011;34859;51.608;11.462;2022-09-27T04:14:14;1.65;;;0.60;;
49041;SDS011;34859;51.608;11.462;2022-09-27T04:16:55;0.40;;;0.40;;
49041;SDS011;34859;51.608;11.462;2022-09-27T04:19:39;1.23;;;0.40;;
49041;SDS011;34859;51.608;11.462;2022-09-27T04:22:20;0.70;;;0.70;;
49041;SDS011;34859;51.608;11.462;2022-09-27T04:25:07;0.47;;;0.47;;
49041;SDS011;34859;51.608;11.462;2022-09-27T04:27:52;1.95;;;0.40;;
49041;SDS011;34859;51.608;11.462;2022-09-27T04:30:37;0.80;;;0.57;;
49041;SDS011;34859;51.608;11.462;2022-09-27T04:33:21;0.30;;;0.30;;
49041;SDS011;34859;51.608;11.462;2022-09-27T04:36:06;0.68;;;0.55;;
49041;SDS011;34859;51.608;11.462;2022-09-27T04:39:10;0.43;;;0.40;;
49041;SDS011;34859;51.608;11.462;2022-09-27T04:41:54;1.52;;;0.30;;
49041;SDS011;34859;51.608;11.462;2022-09-27T04:47:23;0.40;;;0.40;;
49041;SDS011;34859;51.608;11.462;2022-09-27T04:50:07;0.20;;;0.20;;
49041;SDS011;34859;51.608;11.462;2022-09-27T04:52:52;1.80;;;0.32;;
49041;SDS011;34859;51.608;11.462;2022-09-27T04:55:36;0.32;;;0.32;;
49041;SDS011;34859;51.608;11.462;2022-09-27T04:58:21;0.52;;;0.40;;
49041;SDS011;34859;51.608;11.462;2022-09-27T05:01:06;0.50;;;0.35;;
49041;SDS011;34859;51.608;11.462;2022-09-27T05:03:52;0.40;;;0.30;;
49041;SDS011;34859;51.608;11.462;2022-09-27T05:06:36;1.85;;;0.65;;
49041;SDS011;34859;51.608;11.462;2022-09-27T05:09:20;4.05;;;0.40;;
49041;SDS011;34859;51.608;11.462;2022-09-27T05:12:05;0.40;;;0.40;;
49041;SDS011;34859;51.608;11.462;2022-09-27T05:14:51;0.30;;;0.30;;
49041;SDS011;34859;51.608;11.462;2022-09-27T05:20:20;0.43;;;0.43;;
49041;SDS011;34859;51.608;11.462;2022-09-27T05:23:05;0.75;;;0.30;;
49041;SDS011;34859;51.608;11.462;2022-09-27T05:25:49;0.80;;;0.30;;
49041;SDS011;34859;51.608;11.462;2022-09-27T05:28:33;0.50;;;0.50;;
49041;SDS011;34859;51.608;11.462;2022-09-27T05:31:20;0.32;;;0.30;;
49041;SDS011;34859;51.608;11.462;2022-09-27T05:34:04;0.50;;;0.50;;
49041;SDS011;34859;51.608;11.462;2022-09-27T05:36:51;0.95;;;0.40;;
49041;SDS011;34859;51.608;11.462;2022-09-27T05:39:36;1.33;;;0.50;;
49041;SDS011;34859;51.608;11.462;2022-09-27T05:42:20;1.55;;;0.50;;
49041;SDS011;34859;51.608;11.462;2022-09-27T05:45:04;0.90;;;0.57;;
49041;SDS011;34859;51.608;11.462;2022-09-27T05:47:53;2.63;;;0.82;;
49041;SDS011;34859;51.608;11.462;2022-09-27T05:50:38;2.03;;;0.90;;
49041;SDS011;34859;51.608;11.462;2022-09-27T05:53:23;1.10;;;0.80;;
49041;SDS011;34859;51.608;11.462;2022-09-27T05:56:07;0.88;;;0.60;;
49041;SDS011;34859;51.608;11.462;2022-09-27T05:58:51;1.77;;;0.70;;
49041;SDS011;34859;51.608;11.462;2022-09-27T06:01:36;2.33;;;0.80;;
49041;SDS011;34859;51.608;11.462;2022-09-27T06:04:20;1.67;;;0.70;;
49041;SDS011;34859;51.608;11.462;2022-09-27T06:07:04;2.60;;;0.80;;
49041;SDS011;34859;51.608;11.462;2022-09-27T06:09:48;0.70;;;0.70;;
49041;SDS011;34859;51.608;11.462;2022-09-27T06:12:32;1.25;;;0.88;;
49041;SDS011;34859;51.608;11.462;2022-09-27T06:15:17;1.80;;;0.75;;
49041;SDS011;34859;51.608;11.462;2022-09-27T06:18:11;1.50;;;0.98;;
49041;SDS011;34859;51.608;11.462;2022-09-27T06:20:59;0.95;;;0.80;;
49041;SDS011;34859;51.608;11.462;2022-09-27T06:23:44;1.42;;;0.80;;
49041;SDS011;34859;51.608;11.462;2022-09-27T06:26:29;2.80;;;0.77;;
49041;SDS011;34859;51.608;11.462;2022-09-27T06:29:13;1.30;;;1.20;;
49041;SDS011;34859;51.608;11.462;2022-09-27T06:31:57;1.00;;;0.80;;
49041;SDS011;34859;51.608;11.462;2022-09-27T06:34:41;1.33;;;0.82;;
49041;SDS011;34859;51.608;11.462;2022-09-27T06:37:26;2.47;;;1.08;;
49041;SDS011;34859;51.608;11.462;2022-09-27T06:40:10;1.88;;;0.88;;
49041;SDS011;34859;51.608;11.462;2022-09-27T06:42:54;1.10;;;1.00;;
49041;SDS011;34859;51.608;11.462;2022-09-27T06:45:44;1.27;;;0.90;;
49041;SDS011;34859;51.608;11.462;2022-09-27T06:48:33;1.40;;;0.88;;
49041;SDS011;34859;51.608;11.462;2022-09-27T06:51:20;2.35;;;1.30;;
49041;SDS011;34859;51.608;11.462;2022-09-27T06:54:05;2.25;;;1.10;;
49041;SDS011;34859;51.608;11.462;2022-09-27T06:56:49;2.55;;;1.10;;
49041;SDS011;34859;51.608;11.462;2022-09-27T06:59:34;1.30;;;1.20;;
49041;SDS011;34859;51.608;11.462;2022-09-27T07:02:37;1.17;;;1.10;;
49041;SDS011;34859;51.608;11.462;2022-09-27T07:05:22;1.67;;;1.40;;
49041;SDS011;34859;51.608;11.462;2022-09-27T07:08:09;1.98;;;0.90;;
49041;SDS011;34859;51.608;11.462;2022-09-27T07:10:55;1.92;;;0.85;;
49041;SDS011;34859;51.608;11.462;2022-09-27T07:13:43;0.75;;;0.75;;
49041;SDS011;34859;51.608;11.462;2022-09-27T07:16:27;1.50;;;0.85;;
49041;SDS011;34859;51.608;11.462;2022-09-27T07:19:11;0.75;;;0.75;;
49041;SDS011;34859;51.608;11.462;2022-09-27T07:21:57;1.63;;;0.77;;
49041;SDS011;34859;51.608;11.462;2022-09-27T07:24:41;1.00;;;0.90;;
49041;SDS011;34859;51.608;11.462;2022-09-27T07:27:25;0.97;;;0.80;;
49041;SDS011;34859;51.608;11.462;2022-09-27T07:30:10;0.90;;;0.90;;
49041;SDS011;34859;51.608;11.462;2022-09-27T07:35:42;2.53;;;0.82;;
49041;SDS011;34859;51.608;11.462;2022-09-27T07:38:26;0.60;;;0.60;;
49041;SDS011;34859;51.608;11.462;2022-09-27T07:41:11;0.63;;;0.63;;
49041;SDS011;34859;51.608;11.462;2022-09-27T07:43:57;0.60;;;0.50;;
49041;SDS011;34859;51.608;11.462;2022-09-27T07:46:42;0.80;;;0.30;;
49041;SDS011;34859;51.608;11.462;2022-09-27T07:49:26;0.52;;;0.47;;
49041;SDS011;34859;51.608;11.462;2022-09-27T07:52:10;0.73;;;0.50;;
49041;SDS011;34859;51.608;11.462;2022-09-27T07:54:55;0.63;;;0.40;;
49041;SDS011;34859;51.608;11.462;2022-09-27T07:57:39;0.40;;;0.40;;
49041;SDS011;34859;51.608;11.462;2022-09-27T08:00:24;3.50;;;0.30;;
49041;SDS011;34859;51.608;11.462;2022-09-27T08:03:10;1.20;;;0.40;;
49041;SDS011;34859;51.608;11.462;2022-09-27T08:06:01;1.55;;;0.40;;
49041;SDS011;34859;51.608;11.462;2022-09-27T08:08:46;0.65;;;0.30;;
49041;SDS011;34859;51.608;11.462;2022-09-27T08:11:30;3.58;;;1.02;;
49041;SDS011;34859;51.608;11.462;2022-09-27T08:14:14;0.20;;;0.10;;
49041;SDS011;34859;51.608;11.462;2022-09-27T08:16:58;0.10;;;0.03;;
49041;SDS011;34859;51.608;11.462;2022-09-27T08:19:43;0.63;;;0.03;;
49041;SDS011;34859;51.608;11.462;2022-09-27T08:22:27;0.63;;;0.28;;
49041;SDS011;34859;51.608;11.462;2022-09-27T08:25:12;0.55;;;0.17;;
49041;SDS011;34859;51.608;11.462;2022-09-27T08:27:57;1.42;;;0.20;;
49041;SDS011;34859;51.608;11.462;2022-09-27T08:30:43;0.35;;;0.20;;
49041;SDS011;34859;51.608;11.462;2022-09-27T08:33:27;2.47;;;2.28;;
49041;SDS011;34859;51.608;11.462;2022-09-27T08:36:11;4.55;;;3.92;;
49041;SDS011;34859;51.608;11.462;2022-09-27T08:38:56;4.80;;;4.25;;
49041;SDS011;34859;51.608;11.462;2022-09-27T08:48:01;0.40;;;0.40;;
49041;SDS011;34859;51.608;11.462;2022-09-27T08:50:47;0.93;;;0.30;;
49041;SDS011;34859;51.608;11.462;2022-09-27T08:56:34;1.30;;;0.10;;
49041;SDS011;34859;51.608;11.462;2022-09-27T08:59:21;0.32;;;0.20;;
49041;SDS011;34859;51.608;11.462;2022-09-27T09:02:16;0.40;;;0.30;;
49041;SDS011;34859;51.608;11.462;2022-09-27T09:05:05;0.73;;;0.73;;
49041;SDS011;34859;51.608;11.462;2022-09-27T09:08:07;0.63;;;0.60;;
49041;SDS011;34859;51.608;11.462;2022-09-27T09:17:43;0.70;;;0.20;;
49041;SDS011;34859;51.608;11.462;2022-09-27T09:20:47;2.20;;;0.30;;
49041;SDS011;34859;51.608;11.462;2022-09-27T09:30:10;1.77;;;0.63;;
49041;SDS011;34859;51.608;11.462;2022-09-27T09:35:46;1.45;;;0.30;;
49041;SDS011;34859;51.608;11.462;2022-09-27T09:38:52;1.00;;;0.15;;
49041;SDS011;34859;51.608;11.462;2022-09-27T09:44:58;0.47;;;0.30;;
49041;SDS011;34859;51.608;11.462;2022-09-27T09:47:52;0.30;;;0.20;;
49041;SDS011;34859;51.608;11.462;2022-09-27T09:50:44;0.47;;;0.20;;
49041;SDS011;34859;51.608;11.462;2022-09-27T09:53:42;1.48;;;0.20;;
49041;SDS011;34859;51.608;11.462;2022-09-27T09:56:33;0.20;;;0.20;;
49041;SDS011;34859;51.608;11.462;2022-09-27T09:59:24;0.65;;;0.45;;
49041;SDS011;34859;51.608;11.462;2022-09-27T10:05:23;0.63;;;0.20;;
49041;SDS011;34859;51.608;11.462;2022-09-27T10:08:11;0.35;;;0.20;;
49041;SDS011;34859;51.608;11.462;2022-09-27T10:11:00;0.32;;;0.20;;
49041;SDS011;34859;51.608;11.462;2022-09-27T10:13:44;0.20;;;0.10;;
49041;SDS011;34859;51.608;11.462;2022-09-27T10:16:28;0.55;;;0.30;;
49041;SDS011;34859;51.608;11.462;2022-09-27T10:19:12;0.70;;;0.43;;
49041;SDS011;34859;51.608;11.462;2022-09-27T10:22:01;2.20;;;2.00;;
49041;SDS011;34859;51.608;11.462;2022-09-27T10:25:06;1.20;;;0.77;;
49041;SDS011;34859;51.608;11.462;2022-09-27T10:27:52;0.43;;;0.40;;
49041;SDS011;34859;51.608;11.462;2022-09-27T10:30:38;0.45;;;0.40;;
49041;SDS011;34859;51.608;11.462;2022-09-27T10:33:22;0.50;;;0.50;;
49041;SDS011;34859;51.608;11.462;2022-09-27T10:36:21;0.40;;;0.40;;
49041;SDS011;34859;51.608;11.462;2022-09-27T10:39:19;0.68;;;0.60;;
49041;SDS011;34859;51.608;11.462;2022-09-27T10:42:18;2.33;;;0.50;;
49041;SDS011;34859;51.608;11.462;2022-09-27T10:48:17;1.35;;;0.20;;
49041;SDS011;34859;51.608;11.462;2022-09-27T10:51:20;0.82;;;0.30;;
49041;SDS011;34859;51.608;11.462;2022-09-27T10:54:18;0.77;;;0.30;;
49041;SDS011;34859;51.608;11.462;2022-09-27T10:57:17;6.10;;;0.50;;
49041;SDS011;34859;51.608;11.462;2022-09-27T11:00:07;0.85;;;0.40;;
49041;SDS011;34859;51.608;11.462;2022-09-27T11:03:05;1.10;;;0.50;;
49041;SDS011;34859;51.608;11.462;2022-09-27T11:05:58;0.40;;;0.40;;
49041;SDS011;34859;51.608;11.462;2022-09-27T11:08:43;0.20;;;0.20;;
49041;SDS011;34859;51.608;11.462;2022-09-27T11:11:30;1.27;;;0.52;;
49041;SDS011;34859;51.608;11.462;2022-09-27T11:14:21;1.20;;;0.60;;
49041;SDS011;34859;51.608;11.462;2022-09-27T11:17:08;0.82;;;0.40;;
49041;SDS011;34859;51.608;11.462;2022-09-27T11:23:04;0.77;;;0.32;;
49041;SDS011;34859;51.608;11.462;2022-09-27T11:29:12;0.20;;;0.20;;
49041;SDS011;34859;51.608;11.462;2022-09-27T11:32:12;0.10;;;0.10;;
49041;SDS011;34859;51.608;11.462;2022-09-27T11:41:10;0.68;;;0.30;;
49041;SDS011;34859;51.608;11.462;2022-09-27T11:44:07;0.25;;;0.25;;
49041;SDS011;34859;51.608;11.462;2022-09-27T11:51:00;1.35;;;0.47;;
49041;SDS011;34859;51.608;11.462;2022-09-27T11:54:17;2.38;;;0.30;;
49041;SDS011;34859;51.608;11.462;2022-09-27T12:00:20;0.65;;;0.30;;
49041;SDS011;34859;51.608;11.462;2022-09-27T12:06:08;4.25;;;0.35;;
49041;SDS011;34859;51.608;11.462;2022-09-27T12:09:06;0.63;;;0.20;;
49041;SDS011;34859;51.608;11.462;2022-09-27T12:12:03;0.22;;;0.22;;
49041;SDS011;34859;51.608;11.462;2022-09-27T12:15:14;1.45;;;0.20;;
49041;SDS011;34859;51.608;11.462;2022-09-27T12:21:03;0.95;;;0.35;;
49041;SDS011;34859;51.608;11.462;2022-09-27T12:23:54;2.72;;;0.60;;
49041;SDS011;34859;51.608;11.462;2022-09-27T12:26:43;1.60;;;0.30;;
49041;SDS011;34859;51.608;11.462;2022-09-27T12:29:29;0.80;;;0.30;;
49041;SDS011;34859;51.608;11.462;2022-09-27T12:32:17;1.45;;;0.40;;
49041;SDS011;34859;51.608;11.462;2022-09-27T12:35:17;0.70;;;0.60;;
49041;SDS011;34859;51.608;11.462;2022-09-27T12:38:16;1.60;;;0.30;;
49041;SDS011;34859;51.608;11.462;2022-09-27T12:41:09;1.90;;;0.57;;
49041;SDS011;34859;51.608;11.462;2022-09-27T12:43:57;1.50;;;0.40;;
49041;SDS011;34859;51.608;11.462;2022-09-27T12:52:22;1.10;;;0.60;;
49041;SDS011;34859;51.608;11.462;2022-09-27T12:58:39;2.42;;;0.70;;
49041;SDS011;34859;51.608;11.462;2022-09-27T13:04:52;2.70;;;1.00;;
49041;SDS011;34859;51.608;11.462;2022-09-27T13:08:32;0.98;;;0.90;;
49041;SDS011;34859;51.608;11.462;2022-09-27T13:11:15;1.63;;;1.08;;
49041;SDS011;34859;51.608;11.462;2022-09-27T13:14:16;2.72;;;0.95;;
49041;SDS011;34859;51.608;11.462;2022-09-27T13:17:51;1.45;;;1.25;;
49041;SDS011;34859;51.608;11.462;2022-09-27T13:46:04;1.65;;;1.17;;
49041;SDS011;34859;51.608;11.462;2022-09-27T13:52:01;2.08;;;1.25;;
49041;SDS011;34859;51.608;11.462;2022-09-27T13:54:52;2.83;;;1.10;;
49041;SDS011;34859;51.608;11.462;2022-09-27T13:57:57;1.67;;;1.20;;
49041;SDS011;34859;51.608;11.462;2022-09-27T14:00:52;2.03;;;0.88;;
49041;SDS011;34859;51.608;11.462;2022-09-27T14:03:41;1.73;;;0.80;;
49041;SDS011;34859;51.608;11.462;2022-09-27T14:06:31;1.40;;;1.00;;
49041;SDS011;34859;51.608;11.462;2022-09-27T14:09:29;2.80;;;1.00;;
49041;SDS011;34859;51.608;11.462;2022-09-27T14:12:16;2.25;;;1.13;;
49041;SDS011;34859;51.608;11.462;2022-09-27T14:15:03;2.03;;;1.40;;
49041;SDS011;34859;51.608;11.462;2022-09-27T14:17:51;2.20;;;0.90;;
49041;SDS011;34859;51.608;11.462;2022-09-27T14:20:37;1.48;;;0.80;;
49041;SDS011;34859;51.608;11.462;2022-09-27T14:23:24;1.98;;;1.10;;
49041;SDS011;34859;51.608;11.462;2022-09-27T14:26:22;2.90;;;0.90;;
49041;SDS011;34859;51.608;11.462;2022-09-27T14:29:14;1.80;;;0.90;;
49041;SDS011;34859;51.608;11.462;2022-09-27T14:32:08;3.60;;;1.75;;
49041;SDS011;34859;51.608;11.462;2022-09-27T14:38:29;2.38;;;1.02;;
49041;SDS011;34859;51.608;11.462;2022-09-27T14:41:15;1.33;;;1.23;;
49041;SDS011;34859;51.608;11.462;2022-09-27T14:44:00;4.80;;;1.00;;
49041;SDS011;34859;51.608;11.462;2022-09-27T14:46:44;2.83;;;1.63;;
49041;SDS011;34859;51.608;11.462;2022-09-27T14:52:19;1.53;;;1.27;;
49041;SDS011;34859;51.608;11.462;2022-09-27T14:55:18;2.95;;;0.93;;
49041;SDS011;34859;51.608;11.462;2022-09-27T14:58:03;1.67;;;0.80;;
49041;SDS011;34859;51.608;11.462;2022-09-27T15:00:48;0.85;;;0.43;;
49041;SDS011;34859;51.608;11.462;2022-09-27T15:03:33;1.70;;;0.73;;
49041;SDS011;34859;51.608;11.462;2022-09-27T15:06:20;1.42;;;0.57;;
49041;SDS011;34859;51.608;11.462;2022-09-27T15:09:05;1.20;;;0.50;;
49041;SDS011;34859;51.608;11.462;2022-09-27T15:11:54;1.13;;;0.60;;
49041;SDS011;34859;51.608;11.462;2022-09-27T15:14:42;1.77;;;0.57;;
49041;SDS011;34859;51.608;11.462;2022-09-27T15:17:32;1.80;;;0.65;;
49041;SDS011;34859;51.608;11.462;2022-09-27T15:20:25;1.00;;;0.68;;
49041;SDS011;34859;51.608;11.462;2022-09-27T15:23:23;1.10;;;0.50;;
49041;SDS011;34859;51.608;11.462;2022-09-27T15:26:21;1.50;;;0.30;;
49041;SDS011;34859;51.608;11.462;2022-09-27T15:29:19;1.65;;;0.55;;
49041;SDS011;34859;51.608;11.462;2022-09-27T15:32:10;6.03;;;5.60;;
49041;SDS011;34859;51.608;11.462;2022-09-27T15:35:04;1.55;;;0.40;;
49041;SDS011;34859;51.608;11.462;2022-09-27T15:37:51;2.10;;;0.40;;
49041;SDS011;34859;51.608;11.462;2022-09-27T15:43:38;2.08;;;1.90;;
49041;SDS011;34859;51.608;11.462;2022-09-27T15:46:35;0.65;;;0.40;;
49041;SDS011;34859;51.608;11.462;2022-09-27T15:49:25;0.60;;;0.35;;
49041;SDS011;34859;51.608;11.462;2022-09-27T15:52:12;1.13;;;0.85;;
49041;SDS011;34859;51.608;11.462;2022-09-27T15:55:26;2.88;;;2.53;;
49041;SDS011;34859;51.608;11.462;2022-09-27T15:58:13;0.93;;;0.75;;
49041;SDS011;34859;51.608;11.462;2022-09-27T16:01:02;0.45;;;0.43;;
49041;SDS011;34859;51.608;11.462;2022-09-27T16:03:50;0.50;;;0.40;;
49041;SDS011;34859;51.608;11.462;2022-09-27T16:06:34;1.05;;;0.30;;
49041;SDS011;34859;51.608;11.462;2022-09-27T16:09:20;0.60;;;0.47;;
49041;SDS011;34859;51.608;11.462;2022-09-27T16:12:05;0.57;;;0.32;;
49041;SDS011;34859;51.608;11.462;2022-09-27T16:14:49;0.82;;;0.40;;
49041;SDS011;34859;51.608;11.462;2022-09-27T16:17:33;0.52;;;0.30;;
49041;SDS011;34859;51.608;11.462;2022-09-27T16:20:21;0.60;;;0.47;;
49041;SDS011;34859;51.608;11.462;2022-09-27T16:23:07;0.55;;;0.40;;
49041;SDS011;34859;51.608;11.462;2022-09-27T16:25:52;0.93;;;0.50;;
49041;SDS011;34859;51.608;11.462;2022-09-27T16:28:36;3.72;;;0.70;;
49041;SDS011;34859;51.608;11.462;2022-09-27T16:31:20;1.70;;;0.60;;
49041;SDS011;34859;51.608;11.462;2022-09-27T16:34:07;1.00;;;0.60;;
49041;SDS011;34859;51.608;11.462;2022-09-27T16:36:51;0.35;;;0.30;;
49041;SDS011;34859;51.608;11.462;2022-09-27T16:39:36;0.63;;;0.40;;
49041;SDS011;34859;51.608;11.462;2022-09-27T16:42:22;0.43;;;0.30;;
49041;SDS011;34859;51.608;11.462;2022-09-27T16:45:06;0.88;;;0.63;;
49041;SDS011;34859;51.608;11.462;2022-09-27T16:47:51;13.25;;;4.50;;
49041;SDS011;34859;51.608;11.462;2022-09-27T16:50:35;6.18;;;2.65;;
49041;SDS011;34859;51.608;11.462;2022-09-27T16:53:38;0.85;;;0.50;;
49041;SDS011;34859;51.608;11.462;2022-09-27T16:56:22;1.38;;;0.77;;
49041;SDS011;34859;51.608;11.462;2022-09-27T16:59:06;1.55;;;0.90;;
49041;SDS011;34859;51.608;11.462;2022-09-27T17:01:50;2.53;;;0.82;;
49041;SDS011;34859;51.608;11.462;2022-09-27T17:04:35;0.50;;;0.40;;
49041;SDS011;34859;51.608;11.462;2022-09-27T17:07:19;0.87;;;0.57;;
49041;SDS011;34859;51.608;11.462;2022-09-27T17:10:04;3.78;;;0.52;;
49041;SDS011;34859;51.608;11.462;2022-09-27T17:15:35;0.47;;;0.40;;
49041;SDS011;34859;51.608;11.462;2022-09-27T17:18:19;2.28;;;0.40;;
49041;SDS011;34859;51.608;11.462;2022-09-27T17:21:05;2.20;;;0.70;;
49041;SDS011;34859;51.608;11.462;2022-09-27T17:23:50;1.25;;;0.40;;
49041;SDS011;34859;51.608;11.462;2022-09-27T17:26:34;0.90;;;0.70;;
49041;SDS011;34859;51.608;11.462;2022-09-27T17:29:18;0.88;;;0.63;;
49041;SDS011;34859;51.608;11.462;2022-09-27T17:32:02;0.90;;;0.60;;
49041;SDS011;34859;51.608;11.462;2022-09-27T17:34:46;0.60;;;0.50;;
49041;SDS011;34859;51.608;11.462;2022-09-27T17:37:30;1.10;;;0.80;;
49041;SDS011;34859;51.608;11.462;2022-09-27T17:40:14;2.03;;;1.80;;
49041;SDS011;34859;51.608;11.462;2022-09-27T17:42:59;1.70;;;1.20;;
49041;SDS011;34859;51.608;11.462;2022-09-27T17:45:40;1.13;;;0.50;;
49041;SDS011;34859;51.608;11.462;2022-09-27T17:48:24;1.13;;;0.60;;
49041;SDS011;34859;51.608;11.462;2022-09-27T17:51:48;1.00;;;0.80;;
49041;SDS011;34859;51.608;11.462;2022-09-27T17:54:34;0.70;;;0.70;;
49041;SDS011;34859;51.608;11.462;2022-09-27T17:57:18;1.10;;;1.00;;
49041;SDS011;34859;51.608;11.462;2022-09-27T18:00:03;0.95;;;0.90;;
49041;SDS011;34859;51.608;11.462;2022-09-27T18:02:48;2.45;;;0.90;;
49041;SDS011;34859;51.608;11.462;2022-09-27T18:05:32;0.88;;;0.80;;
49041;SDS011;34859;51.608;11.462;2022-09-27T18:08:16;1.13;;;0.70;;
49041;SDS011;34859;51.608;11.462;2022-09-27T18:11:07;1.13;;;0.90;;
49041;SDS011;34859;51.608;11.462;2022-09-27T18:13:56;1.75;;;0.90;;
49041;SDS011;34859;51.608;11.462;2022-09-27T18:16:42;2.05;;;0.93;;
49041;SDS011;34859;51.608;11.462;2022-09-27T18:19:26;0.80;;;0.80;;
49041;SDS011;34859;51.608;11.462;2022-09-27T18:22:10;2.13;;;1.00;;
49041;SDS011;34859;51.608;11.462;2022-09-27T18:24:54;1.45;;;1.35;;
49041;SDS011;34859;51.608;11.462;2022-09-27T18:27:38;1.48;;;1.38;;
49041;SDS011;34859;51.608;11.462;2022-09-27T18:30:23;3.67;;;1.95;;
49041;SDS011;34859;51.608;11.462;2022-09-27T18:33:07;2.50;;;2.20;;
49041;SDS011;34859;51.608;11.462;2022-09-27T18:35:51;2.90;;;2.70;;
49041;SDS011;34859;51.608;11.462;2022-09-27T18:38:36;3.53;;;3.22;;
49041;SDS011;34859;51.608;11.462;2022-09-27T18:41:20;4.85;;;4.07;;
49041;SDS011;34859;51.608;11.462;2022-09-27T18:44:06;3.15;;;2.95;;
49041;SDS011;34859;51.608;11.462;2022-09-27T18:46:50;3.53;;;3.22;;
49041;SDS011;34859;51.608;11.462;2022-09-27T18:49:35;3.67;;;3.38;;
49041;SDS011;34859;51.608;11.462;2022-09-27T18:52:19;3.08;;;2.80;;
49041;SDS011;34859;51.608;11.462;2022-09-27T18:55:04;3.07;;;2.77;;
49041;SDS011;34859;51.608;11.462;2022-09-27T18:57:48;3.40;;;3.10;;
49041;SDS011;34859;51.608;11.462;2022-09-27T19:00:32;4.90;;;3.47;;
49041;SDS011;34859;51.608;11.462;2022-09-27T19:03:16;3.17;;;2.97;;
49041;SDS011;34859;51.608;11.462;2022-09-27T19:05:58;2.22;;;1.80;;
49041;SDS011;34859;51.608;11.462;2022-09-27T19:08:45;2.78;;;2.10;;
49041;SDS011;34859;51.608;11.462;2022-09-27T19:11:29;2.22;;;2.13;;
49041;SDS011;34859;51.608;11.462;2022-09-27T19:14:16;1.77;;;1.67;;
49041;SDS011;34859;51.608;11.462;2022-09-27T19:17:02;2.42;;;2.22;;
49041;SDS011;34859;51.608;11.462;2022-09-27T19:19:46;2.20;;;2.08;;
49041;SDS011;34859;51.608;11.462;2022-09-27T19:22:30;2.75;;;2.55;;